Time;durP1;ratioP1;P1;durP2;ratioP2;P2;SDS_P1;SDS_P2;PMS_P1;PMS_P2;Temp;Humidity;BMP_temperature;BMP_pressure;BME280_temperature;BME280_humidity;BME280_pressure;Samples;Min_cycle;Max_cycle;Signal;HPM_P1;HPM_P2
2022/07/27 00:01:43;;;;;;;4.40;1.02;;;;;;;11.12;72.81;99308.38;1734212;81;20894;-62
2022/07/27 00:04:09;;;;;;;3.22;1.07;;;;;;;11.09;72.86;99307.69;1735826;81;21514;-62
2022/07/27 00:06:36;;;;;;;6.37;2.15;;;;;;;11.06;72.91;99302.64;1729545;81;20942;-63
2022/07/27 00:09:03;;;;;;;8.03;1.60;;;;;;;11.05;73.02;99303.58;1745283;80;20961;-62
2022/07/27 00:11:30;;;;;;;4.92;1.40;;;;;;;11.02;73.07;99298.06;1744530;81;21891;-62
2022/07/27 00:13:56;;;;;;;4.00;1.13;;;;;;;11.01;73.14;99296.82;1719256;81;20903;-62
2022/07/27 00:16:23;;;;;;;6.72;1.50;;;;;;;10.97;73.20;99302.22;1728949;81;20911;-62
2022/07/27 00:18:50;;;;;;;4.55;1.47;;;;;;;10.94;73.23;99297.17;1726811;81;20978;-62
2022/07/27 00:21:17;;;;;;;2.83;0.90;;;;;;;10.91;73.32;99292.12;1725361;81;21500;-62
2022/07/27 00:23:43;;;;;;;4.30;1.23;;;;;;;10.89;73.35;99301.80;1735404;81;21040;-62
2022/07/27 00:26:10;;;;;;;4.03;1.10;;;;;;;10.86;73.44;99307.20;1732306;81;20993;-62
2022/07/27 00:28:37;;;;;;;7.55;1.12;;;;;;;10.85;73.55;99308.13;1733432;81;21717;-62
2022/07/27 00:31:04;;;;;;;3.80;1.10;;;;;;;10.85;73.59;99302.91;1738437;81;20922;-62
2022/07/27 00:33:30;;;;;;;4.03;1.73;;;;;;;10.85;73.62;99304.22;1723167;81;21017;-62
2022/07/27 00:35:57;;;;;;;2.07;1.20;;;;;;;10.87;73.78;99299.77;1744427;81;21037;-62
2022/07/27 00:38:24;;;;;;;5.47;2.12;;;;;;;10.90;73.94;99302.20;1740426;80;21507;-63
2022/07/27 00:40:51;;;;;;;3.02;1.00;;;;;;;10.97;74.07;99307.45;1743224;80;21483;-63
2022/07/27 00:43:18;;;;;;;3.83;1.32;;;;;;;11.05;74.21;99306.19;1761282;79;21005;-62
2022/07/27 00:45:45;;;;;;;6.53;1.20;;;;;;;11.14;74.24;99310.89;1737374;80;21049;-62
2022/07/27 00:48:11;;;;;;;4.33;1.52;;;;;;;11.24;74.34;99309.45;1741127;81;21273;-62
2022/07/27 00:50:41;;;;;;;5.35;1.30;;;;;;;11.33;74.39;99306.31;1737301;81;20981;-63
2022/07/27 00:53:09;;;;;;;6.05;1.25;;;;;;;11.39;74.40;99305.95;1720062;82;20949;-62
2022/07/27 00:55:36;;;;;;;;;;;;;;;11.48;74.45;99310.28;1746446;81;20930;-62
2022/07/27 00:58:04;;;;;;;;;;;;;;;11.56;74.66;99302.84;1745631;80;20142;-62
2022/07/27 01:00:31;;;;;;;4.45;1.15;;;;;;;11.64;74.75;99312.39;1740592;81;21051;-62
2022/07/27 01:02:58;;;;;;;3.37;1.10;;;;;;;11.70;74.71;99312.03;1741543;81;21104;-62
2022/07/27 01:05:25;;;;;;;7.10;1.55;;;;;;;11.77;74.76;99317.30;1738703;81;21622;-62
2022/07/27 01:07:52;;;;;;;5.95;1.42;;;;;;;11.85;74.84;99319.03;1736882;81;20922;-62
2022/07/27 01:10:18;;;;;;;4.37;1.07;;;;;;;11.95;74.86;99325.02;1740647;82;20964;-62
2022/07/27 01:12:45;;;;;;;9.20;2.00;;;;;;;12.01;74.79;99319.41;1740422;81;21869;-62
2022/07/27 01:15:12;;;;;;;5.47;0.93;;;;;;;12.07;74.83;99317.73;1738243;81;22048;-62
2022/07/27 01:17:39;;;;;;;4.40;1.50;;;;;;;12.10;74.84;99317.58;1778042;79;21028;-62
2022/07/27 01:20:07;;;;;;;3.50;1.10;;;;;;;12.12;74.78;99317.47;1772131;79;20962;-62
2022/07/27 01:22:34;;;;;;;6.03;2.05;;;;;;;12.08;74.73;99321.58;1742842;81;20950;-62
2022/07/27 01:25:01;;;;;;;9.05;2.35;;;;;;;12.03;74.72;99321.48;1735466;81;21055;-62
2022/07/27 01:27:27;;;;;;;5.83;1.53;;;;;;;11.97;74.71;99319.23;1737585;81;20983;-62
2022/07/27 01:29:54;;;;;;;5.90;1.45;;;;;;;11.91;74.77;99315.68;1740161;81;21199;-62
2022/07/27 01:32:21;;;;;;;8.50;1.22;;;;;;;11.81;74.79;99312.24;1742921;81;20922;-62
2022/07/27 01:34:47;;;;;;;7.80;1.50;;;;;;;11.73;74.85;99309.23;1739876;81;20914;-62
2022/07/27 01:37:15;;;;;;;5.12;1.30;;;;;;;11.64;74.90;99301.94;1739126;81;48726;-62
2022/07/27 01:39:42;;;;;;;3.60;1.10;;;;;;;11.55;74.92;99303.31;1742218;81;20871;-62
2022/07/27 01:42:09;;;;;;;3.83;1.15;;;;;;;11.48;74.99;99308.98;1738783;81;20970;-62
2022/07/27 01:44:36;;;;;;;4.23;1.70;;;;;;;11.40;74.99;99310.27;1779189;80;20894;-62
2022/07/27 01:47:03;;;;;;;8.00;1.22;;;;;;;11.31;75.03;99306.86;1777631;79;21062;-62
2022/07/27 01:49:30;;;;;;;7.70;1.72;;;;;;;11.24;75.13;99311.23;1769176;79;21065;-62
2022/07/27 01:51:56;;;;;;;3.57;1.13;;;;;;;11.17;75.18;99301.57;1742915;80;20942;-62
2022/07/27 01:54:23;;;;;;;3.60;1.20;;;;;;;11.10;75.19;99304.17;1741354;81;20939;-62
2022/07/27 01:56:50;;;;;;;7.13;1.57;;;;;;;11.03;75.25;99296.28;1737310;81;21360;-62
2022/07/27 01:59:17;;;;;;;5.00;1.22;;;;;;;10.98;75.31;99303.92;1743586;81;20907;-62
2022/07/27 02:01:44;;;;;;;5.07;1.53;;;;;;;10.94;75.37;99299.78;1738262;82;21065;-62
2022/07/27 02:04:11;;;;;;;11.20;1.90;;;;;;;10.88;75.46;99302.73;1733344;80;21432;-62
2022/07/27 02:06:38;;;;;;;3.90;0.90;;;;;;;10.84;75.49;99303.84;1736131;81;20954;-62
2022/07/27 02:09:04;;;;;;;4.78;1.22;;;;;;;10.80;75.54;99310.15;1743769;81;20946;-62
2022/07/27 02:14:16;;;;;;;6.87;2.08;;;;;;;10.69;75.67;99299.45;1735574;81;21074;-62
2022/07/27 02:16:43;;;;;;;3.67;1.07;;;;;;;10.64;75.77;99307.55;1739958;80;20898;-63
2022/07/27 02:19:10;;;;;;;4.33;1.22;;;;;;;10.59;75.77;99299.13;1742441;80;20938;-62
2022/07/27 02:21:36;;;;;;;4.70;1.30;;;;;;;10.56;75.85;99301.03;1742779;81;21445;-62
2022/07/27 02:24:03;;;;;;;4.73;1.10;;;;;;;10.50;75.85;99300.46;1737466;81;20950;-62
2022/07/27 02:26:30;;;;;;;4.20;1.27;;;;;;;10.47;75.85;99301.94;1742765;82;21208;-62
2022/07/27 02:28:57;;;;;;;4.05;1.10;;;;;;;10.43;75.91;99299.09;1738456;81;21440;-62
2022/07/27 02:31:24;;;;;;;4.57;1.10;;;;;;;10.38;75.87;99298.48;1742557;80;21536;-62
2022/07/27 02:33:51;;;;;;;3.70;1.02;;;;;;;10.34;75.98;99299.59;1739128;82;21449;-62
2022/07/27 02:36:17;;;;;;;4.30;1.40;;;;;;;10.27;75.98;99292.99;1742651;82;21363;-62
2022/07/27 02:38:44;;;;;;;7.17;1.40;;;;;;;10.22;76.02;99295.83;1741782;80;21033;-62
2022/07/27 02:41:10;;;;;;;13.53;1.97;;;;;;;10.20;76.19;99287.70;1739271;82;20974;-62
2022/07/27 02:43:37;;;;;;;7.85;1.50;;;;;;;10.19;76.22;99289.91;1738647;81;20903;-62
2022/07/27 02:46:04;;;;;;;5.70;1.30;;;;;;;10.19;76.38;99284.69;1738534;80;20898;-62
2022/07/27 02:48:32;;;;;;;6.40;1.10;;;;;;;10.21;76.41;99288.91;1744058;81;20877;-63
2022/07/27 02:51:01;;;;;;;4.87;1.17;;;;;;;10.26;76.52;99288.68;1776578;80;21538;-62
2022/07/27 02:53:29;;;;;;;4.50;1.40;;;;;;;10.31;76.57;99297.14;1781630;79;20864;-62
2022/07/27 02:55:56;;;;;;;4.50;1.45;;;;;;;10.37;76.63;99298.58;1768687;80;20930;-62
2022/07/27 02:58:23;;;;;;;5.80;1.05;;;;;;;10.41;76.67;99294.41;1740633;82;20923;-62
2022/07/27 03:00:50;;;;;;;4.62;1.17;;;;;;;10.46;76.69;99291.09;1736664;82;20946;-62
2022/07/27 03:03:17;;;;;;;7.10;1.30;;;;;;;10.49;76.75;99290.92;1740130;82;21049;-62
2022/07/27 03:05:44;;;;;;;5.53;1.30;;;;;;;10.56;76.77;99296.67;1768794;80;20985;-62
2022/07/27 03:08:10;;;;;;;5.65;1.87;;;;;;;10.60;76.74;99289.52;1739720;82;20920;-62
2022/07/27 03:10:37;;;;;;;9.43;1.32;;;;;;;10.67;76.80;99298.68;1742387;80;20930;-62
2022/07/27 03:13:04;;;;;;;7.37;1.10;;;;;;;10.75;76.92;99299.11;1739312;80;20979;-62
2022/07/27 03:15:33;;;;;;;9.28;1.32;;;;;;;10.82;76.89;99303.08;1742652;81;20993;-62
2022/07/27 03:18:01;;;;;;;5.83;1.07;;;;;;;10.98;77.07;99298.70;1761675;81;21526;-62
2022/07/27 03:20:27;;;;;;;5.67;1.10;;;;;;;11.61;77.62;99300.81;1758999;79;21419;-62
2022/07/27 03:22:54;;;;;;;4.25;1.10;;;;;;;12.47;77.89;99304.86;1779243;79;20899;-62
2022/07/27 03:25:21;;;;;;;8.45;1.37;;;;;;;13.47;77.65;99302.02;1778270;80;21457;-62
2022/07/27 03:27:47;;;;;;;4.83;1.27;;;;;;;14.30;77.09;99289.36;1776133;80;21883;-63
2022/07/27 03:30:14;;;;;;;6.05;1.35;;;;;;;14.94;76.16;99289.25;1773766;80;20946;-62
2022/07/27 03:32:41;;;;;;;4.35;1.62;;;;;;;14.97;75.51;99274.56;1780107;79;20902;-62
2022/07/27 03:35:08;;;;;;;5.40;1.30;;;;;;;15.31;75.65;99299.70;1739746;82;20958;-63
2022/07/27 03:37:35;;;;;;;4.42;1.52;;;;;;;16.05;75.79;99296.88;1740856;80;20948;-63
2022/07/27 03:40:02;;;;;;;10.05;1.20;;;;;;;16.27;74.42;99288.98;1737414;81;21060;-63
2022/07/27 03:42:29;;;;;;;5.03;1.42;;;;;;;15.75;73.27;99295.60;1744946;81;27051;-63
2022/07/27 03:44:55;;;;;;;4.40;1.75;;;;;;;15.44;73.80;99296.55;1736406;81;20899;-63
2022/07/27 03:47:23;;;;;;;9.75;2.35;;;;;;;16.30;75.36;99297.97;1769666;79;20981;-63
2022/07/27 03:49:51;;;;;;;6.70;1.80;;;;;;;17.54;75.85;99297.73;1737449;82;21419;-63
2022/07/27 03:52:19;;;;;;;9.33;2.00;;;;;;;18.56;74.54;99300.06;1770753;78;21025;-63
2022/07/27 03:54:47;;;;;;;8.30;1.55;;;;;;;19.45;73.93;99304.59;1752901;80;20882;-63
2022/07/27 03:57:14;;;;;;;9.40;1.75;;;;;;;19.98;72.72;99303.32;1756947;80;21421;-63
2022/07/27 03:59:41;;;;;;;6.30;1.80;;;;;;;20.00;71.71;99304.02;1755587;80;21532;-63
2022/07/27 04:02:07;;;;;;;6.03;1.57;;;;;;;19.31;71.23;99302.36;1751648;80;20950;-63
2022/07/27 04:04:34;;;;;;;3.47;1.22;;;;;;;18.53;70.67;99308.27;1757917;80;21132;-63
2022/07/27 04:07:01;;;;;;;38.67;3.10;;;;;;;17.88;71.06;99308.14;1750549;80;21476;-63
2022/07/27 04:09:27;;;;;;;5.17;1.45;;;;;;;17.42;71.40;99315.87;1749211;80;21543;-63
2022/07/27 04:11:54;;;;;;;4.95;2.02;;;;;;;18.32;72.85;99315.42;1723855;81;20957;-63
2022/07/27 04:14:21;;;;;;;10.43;1.98;;;;;;;19.47;71.57;99313.23;1769057;79;20902;-63
2022/07/27 04:16:48;;;;;;;42.73;4.15;;;;;;;19.38;69.77;99312.27;1768989;79;21086;-63
2022/07/27 04:19:14;;;;;;;8.03;1.90;;;;;;;20.03;71.48;99311.69;1766685;80;20898;-64
2022/07/27 04:21:41;;;;;;;7.72;2.25;;;;;;;21.33;71.32;99293.05;1768161;80;20951;-63
2022/07/27 04:24:08;;;;;;;12.15;2.08;;;;;;;22.51;70.58;99298.41;1769809;79;20921;-64
2022/07/27 04:26:35;;;;;;;;;;;;;;;23.71;69.92;99305.23;1755702;80;21440;-64
2022/07/27 04:29:02;;;;;;;6.50;1.52;;;;;;;24.42;67.09;99298.77;1747133;80;21287;-64
2022/07/27 04:31:30;;;;;;;4.78;1.70;;;;;;;24.09;65.32;99297.53;1754233;81;20961;-64
2022/07/27 04:33:57;;;;;;;5.90;2.00;;;;;;;23.28;65.66;99297.02;1752286;80;20966;-64
2022/07/27 04:36:24;;;;;;;4.65;1.98;;;;;;;23.58;65.79;99303.52;1769656;79;20965;-64
2022/07/27 04:38:50;;;;;;;3.87;1.82;;;;;;;23.92;66.13;99299.87;1770935;79;21503;-64
2022/07/27 04:41:19;;;;;;;4.95;1.80;;;;;;;24.15;65.67;99295.52;1736074;81;20985;-64
2022/07/27 04:43:45;;;;;;;;;;;;;;;23.81;63.98;99301.90;1773760;79;20906;-64
2022/07/27 04:46:13;;;;;;;3.72;1.72;;;;;;;23.29;63.62;99294.18;1779618;80;20117;-64
2022/07/27 04:48:40;;;;;;;3.60;1.37;;;;;;;23.01;63.34;99295.79;1745168;81;21512;-64
2022/07/27 04:51:07;;;;;;;;;;;;;;;23.11;63.64;99296.16;1746743;81;20938;-64
2022/07/27 04:53:34;;;;;;;;;;;;;;;22.81;62.37;99301.03;1747257;80;21880;-63
2022/07/27 04:56:01;;;;;;;5.33;1.30;;;;;;;22.91;63.40;99290.23;1757910;81;20113;-64
2022/07/27 04:58:28;;;;;;;7.33;2.12;;;;;;;23.76;62.62;99299.41;1756602;80;20951;-64
2022/07/27 05:00:54;;;;;;;;;;;;;;;24.77;62.52;99298.33;1761694;81;20965;-64
2022/07/27 05:03:21;;;;;;;13.83;3.08;;;;;;;25.72;61.66;99299.08;1749743;80;20479;-65
2022/07/27 05:05:47;;;;;;;11.75;2.40;;;;;;;26.67;61.86;99293.12;1754351;81;21047;-65
2022/07/27 05:08:14;;;;;;;5.08;1.30;;;;;;;26.71;60.40;99302.42;1752238;81;20940;-64
2022/07/27 05:10:41;;;;;;;9.50;1.98;;;;;;;26.35;59.25;99300.47;1755351;80;21008;-64
2022/07/27 05:13:08;;;;;;;3.40;1.25;;;;;;;25.54;59.05;99301.53;1755420;80;20883;-65
2022/07/27 05:15:34;;;;;;;8.55;1.32;;;;;;;25.01;58.08;99307.20;1758845;79;21562;-64
2022/07/27 05:18:01;;;;;;;8.08;1.60;;;;;;;24.54;58.41;99308.11;1753971;80;21025;-64
2022/07/27 05:20:28;;;;;;;64.90;6.47;;;;;;;24.29;57.76;99302.81;1756446;79;20895;-64
2022/07/27 05:22:55;;;;;;;5.55;1.92;;;;;;;23.77;57.31;99309.88;1756109;80;20927;-63
2022/07/27 05:25:24;;;;;;;5.90;1.35;;;;;;;23.35;57.02;99314.83;1751507;80;21064;-64
2022/07/27 05:27:52;;;;;;;3.62;1.52;;;;;;;23.34;57.06;99310.51;1757080;81;20914;-64
2022/07/27 05:30:19;;;;;;;8.60;1.65;;;;;;;23.31;56.66;99310.84;1753521;81;22669;-64
2022/07/27 05:32:46;;;;;;;4.62;1.47;;;;;;;23.83;57.28;99307.87;1741722;80;20955;-64
2022/07/27 05:35:13;;;;;;;7.78;1.67;;;;;;;24.95;56.62;99310.58;1752234;80;20934;-64
2022/07/27 05:37:40;;;;;;;3.30;1.37;;;;;;;25.79;56.06;99305.34;1749103;81;20926;-65
2022/07/27 05:40:09;;;;;;;2.75;1.30;;;;;;;26.49;55.90;99300.97;1747931;80;20978;-64
2022/07/27 05:42:36;;;;;;;9.85;2.05;;;;;;;26.95;55.05;99296.75;1749742;81;21737;-65
2022/07/27 05:45:02;;;;;;;3.05;1.20;;;;;;;27.46;54.55;99290.50;1753267;81;21358;-65
2022/07/27 05:47:29;;;;;;;4.53;1.12;;;;;;;27.53;53.42;99289.20;1749916;81;20961;-65
2022/07/27 05:49:56;;;;;;;2.95;1.10;;;;;;;27.66;53.27;99296.86;1751750;81;20940;-65
2022/07/27 05:52:23;;;;;;;3.08;1.10;;;;;;;28.16;53.07;99299.55;1752627;80;20946;-65
2022/07/27 05:54:49;;;;;;;11.33;2.02;;;;;;;28.35;52.18;99298.02;1753613;80;21010;-65
2022/07/27 05:57:16;;;;;;;7.67;1.42;;;;;;;28.25;51.50;99299.69;1752702;80;20913;-65
2022/07/27 05:59:43;;;;;;;3.90;1.10;;;;;;;28.29;51.19;99294.27;1753562;80;20910;-65
2022/07/27 06:02:09;;;;;;;2.75;1.10;;;;;;;28.53;50.94;99306.91;1749601;81;21002;-64
2022/07/27 06:04:36;;;;;;;3.62;1.25;;;;;;;28.28;49.25;99299.30;1752153;80;20963;-64
2022/07/27 06:09:48;;;;;;;4.70;1.30;;;;;;;27.19;48.58;99317.53;1753789;80;21507;-64
2022/07/27 06:12:14;;;;;;;78.17;6.58;;;;;;;26.59;48.35;99309.28;1753229;80;20886;-64
2022/07/27 06:14:41;;;;;;;11.63;1.50;;;;;;;26.23;48.10;99321.51;1752798;80;20950;-65
2022/07/27 06:17:09;;;;;;;4.22;1.20;;;;;;;26.90;48.51;99315.23;1751033;80;20875;-64
2022/07/27 06:19:38;;;;;;;8.78;1.67;;;;;;;26.82;46.99;99316.67;1750055;81;21057;-64
2022/07/27 06:22:06;;;;;;;3.40;1.10;;;;;;;26.24;47.00;99322.33;1752648;80;20920;-64
2022/07/27 06:24:33;;;;;;;3.80;0.78;;;;;;;26.01;47.11;99319.22;1749891;80;21448;-64
2022/07/27 06:27:00;;;;;;;8.48;1.72;;;;;;;25.82;46.08;99319.22;1750636;81;20961;-68
2022/07/27 06:29:27;;;;;;;9.73;1.90;;;;;;;25.46;45.89;99319.00;1769767;79;21515;-62
2022/07/27 06:31:54;;;;;;;10.48;1.60;;;;;;;24.92;46.24;99326.45;1756820;80;21948;-64
2022/07/27 06:34:20;;;;;;;3.05;1.30;;;;;;;25.02;46.70;99327.58;1756343;80;20945;-62
2022/07/27 06:36:47;;;;;;;4.20;1.20;;;;;;;24.87;45.54;99319.97;1757049;80;20960;-62
2022/07/27 06:39:16;;;;;;;1.70;0.80;;;;;;;24.44;45.98;99326.15;1737377;81;20942;-62
2022/07/27 06:41:43;;;;;;;2.33;0.90;;;;;;;24.81;46.11;99322.00;1755993;80;20950;-63
2022/07/27 06:44:10;;;;;;;5.83;1.30;;;;;;;25.47;46.26;99314.48;1754781;79;21036;-63
2022/07/27 06:46:37;;;;;;;8.45;1.45;;;;;;;25.47;45.32;99319.31;1765075;79;20917;-63
2022/07/27 06:49:03;;;;;;;4.62;1.52;;;;;;;25.21;45.37;99324.50;1772556;79;20876;-62
2022/07/27 06:51:30;;;;;;;2.67;1.00;;;;;;;24.96;45.00;99322.95;1772399;79;21507;-62
2022/07/27 06:53:57;;;;;;;11.20;1.70;;;;;;;24.50;44.65;99325.45;1770916;79;20950;-63
2022/07/27 06:56:24;;;;;;;7.80;1.50;;;;;;;23.98;44.76;99327.22;1771403;79;21067;-63
2022/07/27 06:58:51;;;;;;;2.83;0.93;;;;;;;23.56;44.93;99325.53;1739673;81;21434;-63
2022/07/27 07:01:18;;;;;;;1.98;0.95;;;;;;;23.07;44.77;99329.42;1772145;79;20918;-62
2022/07/27 07:03:44;;;;;;;;;;;;;;;22.68;44.66;99329.41;1767923;79;20988;-64
2022/07/27 07:06:11;;;;;;;4.60;0.82;;;;;;;22.38;44.96;99340.09;1771854;79;20433;-62
2022/07/27 07:08:38;;;;;;;5.62;1.40;;;;;;;22.19;44.81;99332.33;1774058;79;21880;-61
2022/07/27 07:11:04;;;;;;;;;;;;;;;21.85;44.81;99342.36;1773889;79;20902;-62
2022/07/27 07:13:31;;;;;;;8.85;1.65;;;;;;;21.51;45.21;99344.39;1784986;79;20080;-61
2022/07/27 07:15:57;;;;;;;;;;;;;;;21.59;45.29;99341.81;1742051;81;20974;-62
2022/07/27 07:18:24;;;;;;;4.47;1.10;;;;;;;21.16;45.04;99351.29;1773500;79;20117;-62
2022/07/27 07:20:51;;;;;;;5.12;1.00;;;;;;;20.46;44.93;99355.36;1771967;79;21507;-62
2022/07/27 07:23:18;;;;;;;18.20;2.55;;;;;;;20.10;45.58;99351.19;1772659;79;20953;-61
2022/07/27 07:25:45;;;;;;;9.48;1.10;;;;;;;20.06;45.81;99354.63;1755446;81;21459;-62
2022/07/27 07:28:11;;;;;;;3.55;0.80;;;;;;;20.02;46.09;99361.66;1755536;81;21456;-61
2022/07/27 07:30:38;;;;;;;4.28;0.95;;;;;;;20.28;46.78;99349.49;1753368;81;20992;-61
2022/07/27 07:33:05;;;;;;;3.12;1.35;;;;;;;20.63;46.63;99349.33;1772937;79;20963;-62
2022/07/27 07:35:32;;;;;;;1.57;0.80;;;;;;;20.91;46.32;99351.99;1766827;79;21456;-62
2022/07/27 07:37:58;;;;;;;3.47;1.20;;;;;;;21.08;46.86;99355.17;1770673;79;21083;-62
2022/07/27 07:40:25;;;;;;;4.15;1.22;;;;;;;21.38;46.89;99361.19;1769129;79;21451;-62
2022/07/27 07:43:04;;;;;;;5.67;0.98;;;;;;;21.31;46.67;99356.08;1771045;79;27225;-63
2022/07/27 07:45:36;;;;;;;91.57;10.85;;;;;;;21.17;46.54;99363.59;1738265;81;21865;-62
2022/07/27 07:48:06;;;;;;;13.18;2.35;;;;;;;21.04;46.98;99365.77;1753394;80;20944;-62
2022/07/27 07:50:33;;;;;;;9.68;1.67;;;;;;;20.97;47.10;99369.98;1769106;80;20938;-62
2022/07/27 07:53:00;;;;;;;7.75;1.02;;;;;;;20.68;46.89;99382.06;1768380;79;20910;-62
2022/07/27 07:55:28;;;;;;;1.87;0.40;;;;;;;19.98;46.99;99380.16;1758147;80;20942;-62
2022/07/27 07:57:55;;;;;;;2.90;0.47;;;;;;;19.40;46.98;99383.09;1752705;81;21041;-62
2022/07/27 08:00:23;;;;;;;1.77;0.53;;;;;;;18.97;47.40;99384.25;1756265;81;20898;-63
2022/07/27 08:02:54;;;;;;;2.15;0.68;;;;;;;18.75;47.78;99385.77;1754008;81;20934;-62
2022/07/27 08:05:21;;;;;;;1.57;0.50;;;;;;;18.81;48.01;99389.20;1751840;80;20926;-63
2022/07/27 08:07:49;;;;;;;31.60;2.62;;;;;;;19.00;48.37;99389.27;1748770;81;21444;-62
2022/07/27 08:10:19;;;;;;;4.58;0.98;;;;;;;19.29;48.79;99384.53;1725235;81;20917;-61
2022/07/27 08:12:49;;;;;;;2.70;0.72;;;;;;;19.75;48.69;99388.40;1755407;80;20961;-63
2022/07/27 08:15:16;;;;;;;2.37;0.80;;;;;;;20.07;49.07;99389.91;1750212;81;20928;-63
2022/07/27 08:17:43;;;;;;;;;;;;;;;20.35;49.07;99386.36;1752408;80;20893;-62
2022/07/27 08:20:12;;;;;;;2.40;0.75;;;;;;;20.77;49.32;99391.29;1755032;80;20149;-62
2022/07/27 08:22:39;;;;;;;3.12;1.00;;;;;;;21.07;49.23;99388.02;1777775;79;20954;-62
2022/07/27 08:25:06;;;;;;;;;;;;;;;21.25;49.24;99389.38;1775319;79;20890;-63
2022/07/27 08:27:33;;;;;;;2.62;0.55;;;;;;;21.37;49.02;99387.38;1770680;79;20435;-62
2022/07/27 08:30:00;;;;;;;2.95;0.72;;;;;;;21.24;49.06;99391.70;1738523;81;20945;-62
2022/07/27 08:32:27;;;;;;;14.87;1.70;;;;;;;21.13;49.47;99386.10;1752324;81;21511;-62
2022/07/27 08:34:55;;;;;;;6.95;0.80;;;;;;;21.11;49.20;99392.54;1757155;81;21134;-62
2022/07/27 08:37:22;;;;;;;3.70;1.22;;;;;;;20.96;49.35;99401.48;1758311;80;20958;-62
2022/07/27 08:39:49;;;;;;;2.72;0.55;;;;;;;20.77;49.35;99402.41;1753216;80;20942;-62
2022/07/27 08:42:17;;;;;;;8.20;0.85;;;;;;;20.20;48.95;99419.62;1755183;80;20895;-63
2022/07/27 08:44:45;;;;;;;1.32;0.50;;;;;;;19.41;49.30;99428.47;1752892;80;20905;-63
2022/07/27 08:47:15;;;;;;;1.57;0.70;;;;;;;18.58;49.44;99433.95;1752518;80;21471;-63
2022/07/27 08:49:42;;;;;;;2.67;0.75;;;;;;;18.03;50.39;99448.17;1746659;81;21471;-63
2022/07/27 08:52:11;;;;;;;0.88;0.30;;;;;;;17.86;50.83;99448.72;1767683;80;20898;-63
2022/07/27 08:54:40;;;;;;;2.00;0.50;;;;;;;17.66;51.34;99441.91;1754556;80;20939;-63
2022/07/27 08:57:09;;;;;;;1.45;0.42;;;;;;;17.68;51.67;99454.52;1770940;79;20890;-63
2022/07/27 08:59:36;;;;;;;3.33;0.47;;;;;;;17.73;52.23;99451.51;1770506;79;21835;-64
2022/07/27 09:02:04;;;;;;;;;;;;;;;17.98;52.59;99458.30;1760308;81;20950;-63
2022/07/27 09:04:31;;;;;;;3.12;0.53;;;;;;;18.27;53.36;99455.04;1752393;80;20098;-63
2022/07/27 09:06:58;;;;;;;1.87;0.57;;;;;;;18.51;53.31;99450.34;1756183;80;20950;-63
2022/07/27 09:09:24;;;;;;;1.87;0.90;;;;;;;18.83;53.52;99461.34;1770103;80;20942;-64
2022/07/27 09:12:10;;;;;;;5.30;1.07;;;;;;;19.18;53.67;99450.81;1772589;79;20941;-63
2022/07/27 09:14:39;;;;;;;2.90;0.80;;;;;;;19.44;53.70;99454.67;1758866;81;20961;-63
2022/07/27 09:17:26;;;;;;;1.05;0.70;;;;;;;20.05;54.61;99442.20;1753010;81;20958;-63
2022/07/27 09:19:57;;;;;;;1.82;0.62;;;;;;;20.55;54.32;99439.39;1669864;83;20947;-63
2022/07/27 09:22:45;;;;;;;2.05;0.80;;;;;;;20.81;54.13;99442.27;1670878;84;20969;-63
2022/07/27 09:25:15;;;;;;;1.52;0.72;;;;;;;21.04;54.21;99437.42;1660709;84;21889;-63
2022/07/27 09:27:44;;;;;;;1.82;0.70;;;;;;;21.50;54.32;99430.85;1656091;84;20882;-64
2022/07/27 09:30:15;;;;;;;1.30;0.70;;;;;;;21.89;54.43;99424.77;1680951;83;20914;-64
2022/07/27 09:32:58;;;;;;;2.08;0.98;;;;;;;22.32;54.32;99428.46;1681941;83;21077;-64
2022/07/27 09:35:33;;;;;;;11.00;1.10;;;;;;;22.24;53.49;99412.47;1679412;83;21007;-63
2022/07/27 09:38:17;;;;;;;3.87;1.00;;;;;;;21.98;53.46;99411.05;1677562;83;21479;-63
2022/07/27 09:40:45;;;;;;;3.95;0.72;;;;;;;21.51;52.97;99422.75;1678613;85;21559;-64
2022/07/27 09:43:13;;;;;;;3.17;0.72;;;;;;;20.61;52.96;99437.48;1677736;84;20959;-63
2022/07/27 09:45:46;;;;;;;2.72;1.00;;;;;;;19.87;52.93;99429.66;1680288;83;21033;-64
2022/07/27 09:48:16;;;;;;;3.33;1.00;;;;;;;19.21;53.34;99439.95;1678633;84;20913;-64
2022/07/27 09:50:46;;;;;;;3.60;1.00;;;;;;;18.78;53.67;99443.69;1680097;84;21107;-63
2022/07/27 09:53:22;;;;;;;3.08;0.80;;;;;;;18.55;53.94;99435.88;1682189;83;20935;-62
2022/07/27 09:55:59;;;;;;;2.45;0.60;;;;;;;18.47;54.04;99446.76;1713786;81;20978;-63
2022/07/27 09:58:46;;;;;;;2.22;0.78;;;;;;;18.59;54.54;99439.59;1755817;80;20959;-63
2022/07/27 10:01:25;;;;;;;6.75;1.32;;;;;;;18.89;54.80;99438.31;1767223;80;20950;-63
2022/07/27 10:03:55;;;;;;;7.15;1.17;;;;;;;19.15;54.56;99440.50;1770740;79;21459;-64
2022/07/27 10:06:23;;;;;;;1.75;0.72;;;;;;;19.47;54.74;99428.91;1775246;80;20875;-63
2022/07/27 10:08:52;;;;;;;3.22;0.98;;;;;;;19.73;54.82;99430.08;1772391;80;21514;-63
2022/07/27 10:11:21;;;;;;;5.80;1.00;;;;;;;20.23;55.43;99431.75;1769424;80;20916;-63
2022/07/27 10:13:51;;;;;;;3.45;0.90;;;;;;;20.86;54.97;99432.03;1739305;81;20900;-63
2022/07/27 10:16:27;;;;;;;29.02;3.45;;;;;;;20.85;53.80;99438.83;1736256;80;20994;-63
2022/07/27 10:19:20;;;;;;;5.80;1.02;;;;;;;20.39;53.64;99439.11;1775799;80;20926;-63
2022/07/27 10:21:48;;;;;;;2.70;0.60;;;;;;;19.80;53.64;99449.75;1748163;80;20925;-63
2022/07/27 10:24:27;;;;;;;4.05;1.22;;;;;;;19.16;53.80;99450.13;1751020;80;20909;-63
2022/07/27 10:26:55;;;;;;;1.67;0.93;;;;;;;18.46;53.93;99459.14;1729328;80;20946;-63
2022/07/27 10:29:22;;;;;;;;;;;;;;;17.90;54.71;99460.73;1777747;80;21042;-62
2022/07/27 10:31:56;;;;;;;2.17;0.90;;;;;;;17.52;55.33;99467.27;1771291;80;20193;-63
2022/07/27 10:34:41;;;;;;;3.00;0.65;;;;;;;17.12;55.16;99480.98;1778157;80;20941;-62
2022/07/27 10:37:15;;;;;;;3.50;0.90;;;;;;;16.84;55.67;99495.95;1777842;79;20980;-63
2022/07/27 10:40:32;;;;;;;3.65;1.17;;;;;;;16.46;55.91;99498.34;1761831;80;20887;-61
2022/07/27 10:42:25;;;;;;;3.42;0.90;;;;;;;16.22;56.37;99505.82;1756176;81;22753;-63
2022/07/27 10:44:57;;;;;;;3.62;1.07;;;;;;;16.01;56.57;99510.02;1759455;80;21515;-63
2022/07/27 10:47:33;;;;;;;1.65;0.50;;;;;;;15.84;57.11;99518.67;1754112;81;20957;-62
2022/07/27 10:50:23;;;;;;;5.93;0.80;;;;;;;15.78;57.28;99513.02;1749707;81;20996;-62
2022/07/27 10:52:57;;;;;;;3.00;0.98;;;;;;;16.02;57.93;99510.38;1757475;80;21519;-62
2022/07/27 10:55:41;;;;;;;2.50;1.00;;;;;;;16.46;58.25;99495.70;1752485;80;21703;-63
2022/07/27 10:58:17;;;;;;;8.13;1.02;;;;;;;17.03;58.12;99483.48;1754637;80;20914;-63
2022/07/27 11:00:55;;;;;;;3.98;0.88;;;;;;;17.48;58.22;99473.77;1756618;80;20954;-63
2022/07/27 11:03:31;;;;;;;4.33;1.17;;;;;;;18.13;58.73;99465.92;1755561;81;20941;-62
2022/07/27 11:06:10;;;;;;;4.78;1.50;;;;;;;18.62;58.50;99459.98;1755147;80;20945;-60
2022/07/27 11:08:40;;;;;;;2.65;0.82;;;;;;;19.00;58.17;99450.62;1720995;81;20908;-61
2022/07/27 11:11:18;;;;;;;5.45;1.17;;;;;;;18.86;57.58;99447.84;1752972;80;21444;-60
2022/07/27 11:13:48;;;;;;;12.15;1.77;;;;;;;18.68;57.55;99455.98;1748575;80;21017;-61
2022/07/27 11:16:16;;;;;;;38.05;3.52;;;;;;;18.55;57.60;99462.32;1758552;80;20949;-62
2022/07/27 11:18:56;;;;;;;5.92;1.27;;;;;;;18.55;57.64;99464.97;1758358;80;22040;-61
2022/07/27 11:21:33;;;;;;;4.47;1.32;;;;;;;18.71;57.94;99463.69;1750513;81;21034;-61
2022/07/27 11:24:11;;;;;;;10.20;1.05;;;;;;;19.09;58.06;99464.86;1756803;80;20870;-61
2022/07/27 11:26:42;;;;;;;26.02;3.20;;;;;;;19.40;58.02;99454.58;1752614;80;20894;-62
2022/07/27 11:29:12;;;;;;;13.83;2.12;;;;;;;19.66;57.61;99467.34;1750215;80;20945;-61
2022/07/27 11:31:42;;;;;;;3.40;1.00;;;;;;;19.68;57.46;99469.38;1749342;81;20922;-62
2022/07/27 11:34:10;;;;;;;26.10;2.98;;;;;;;19.77;57.57;99468.55;1750124;80;21808;-61
2022/07/27 11:36:48;;;;;;;8.20;1.52;;;;;;;19.94;57.58;99466.20;1756123;80;20956;-61
2022/07/27 11:39:19;;;;;;;4.67;1.40;;;;;;;20.10;57.28;99475.27;1750011;81;20905;-61
2022/07/27 11:41:46;;;;;;;4.00;1.20;;;;;;;20.26;56.99;99470.73;1754650;80;20906;-61
2022/07/27 11:44:18;;;;;;;16.40;8.50;;;;;;;20.34;57.14;99456.29;1753748;81;20922;-61
2022/07/27 11:46:47;;;;;;;4.28;1.90;;;;;;;20.40;56.87;99462.02;1756616;80;21879;-61
2022/07/27 11:49:20;;;;;;;6.62;1.30;;;;;;;20.31;56.27;99463.20;1753271;80;20954;-61